sensor_id;sensor_type;location;lat;lon;timestamp;P1;durP1;ratioP1;P2;durP2;ratioP2
5351;SDS011;2698;51.454;6.736;2022-08-23T00:01:37;13.90;;;4.63;;
5351;SDS011;2698;51.454;6.736;2022-08-23T00:04:07;11.10;;;4.83;;
5351;SDS011;2698;51.454;6.736;2022-08-23T00:06:37;18.70;;;6.20;;
5351;SDS011;2698;51.454;6.736;2022-08-23T00:09:05;21.13;;;6.60;;
5351;SDS011;2698;51.454;6.736;2022-08-23T00:11:33;8.77;;;5.03;;
5351;SDS011;2698;51.454;6.736;2022-08-23T00:14:03;6.90;;;4.70;;
5351;SDS011;2698;51.454;6.736;2022-08-23T00:16:33;23.33;;;7.40;;
5351;SDS011;2698;51.454;6.736;2022-08-23T00:19:00;15.60;;;5.20;;
5351;SDS011;2698;51.454;6.736;2022-08-23T00:21:27;19.27;;;5.87;;
5351;SDS011;2698;51.454;6.736;2022-08-23T00:23:55;28.87;;;4.87;;
5351;SDS011;2698;51.454;6.736;2022-08-23T00:26:22;10.43;;;4.90;;
5351;SDS011;2698;51.454;6.736;2022-08-23T00:28:50;10.43;;;5.57;;
5351;SDS011;2698;51.454;6.736;2022-08-23T00:31:17;12.47;;;5.67;;
5351;SDS011;2698;51.454;6.736;2022-08-23T00:33:45;13.60;;;5.10;;
5351;SDS011;2698;51.454;6.736;2022-08-23T00:36:11;8.37;;;4.50;;
5351;SDS011;2698;51.454;6.736;2022-08-23T00:38:38;10.50;;;5.50;;
5351;SDS011;2698;51.454;6.736;2022-08-23T00:41:07;8.13;;;4.70;;
5351;SDS011;2698;51.454;6.736;2022-08-23T00:43:34;11.10;;;4.33;;
5351;SDS011;2698;51.454;6.736;2022-08-23T00:46:25;11.13;;;5.17;;
5351;SDS011;2698;51.454;6.736;2022-08-23T00:49:21;11.90;;;5.10;;
5351;SDS011;2698;51.454;6.736;2022-08-23T00:51:50;14.40;;;5.30;;
5351;SDS011;2698;51.454;6.736;2022-08-23T00:54:21;19.07;;;5.33;;
5351;SDS011;2698;51.454;6.736;2022-08-23T00:56:53;16.93;;;5.70;;
5351;SDS011;2698;51.454;6.736;2022-08-23T00:59:21;10.80;;;6.00;;
5351;SDS011;2698;51.454;6.736;2022-08-23T01:01:48;17.27;;;6.07;;
5351;SDS011;2698;51.454;6.736;2022-08-23T01:04:16;10.57;;;5.13;;
5351;SDS011;2698;51.454;6.736;2022-08-23T01:06:45;14.83;;;5.37;;
5351;SDS011;2698;51.454;6.736;2022-08-23T01:09:16;10.70;;;5.10;;
5351;SDS011;2698;51.454;6.736;2022-08-23T01:11:47;9.87;;;5.67;;
5351;SDS011;2698;51.454;6.736;2022-08-23T01:14:21;12.23;;;5.10;;
5351;SDS011;2698;51.454;6.736;2022-08-23T01:16:53;12.77;;;5.60;;
5351;SDS011;2698;51.454;6.736;2022-08-23T01:19:26;8.90;;;5.63;;
5351;SDS011;2698;51.454;6.736;2022-08-23T01:21:56;14.80;;;5.57;;
5351;SDS011;2698;51.454;6.736;2022-08-23T01:24:30;10.60;;;5.63;;
5351;SDS011;2698;51.454;6.736;2022-08-23T01:26:57;7.80;;;4.70;;
5351;SDS011;2698;51.454;6.736;2022-08-23T01:29:24;12.63;;;5.57;;
5351;SDS011;2698;51.454;6.736;2022-08-23T01:31:52;8.73;;;5.30;;
5351;SDS011;2698;51.454;6.736;2022-08-23T01:34:20;10.63;;;5.50;;
5351;SDS011;2698;51.454;6.736;2022-08-23T01:36:51;18.20;;;4.40;;
5351;SDS011;2698;51.454;6.736;2022-08-23T01:39:18;15.00;;;5.57;;
5351;SDS011;2698;51.454;6.736;2022-08-23T01:41:47;21.20;;;6.47;;
5351;SDS011;2698;51.454;6.736;2022-08-23T01:44:15;21.90;;;5.83;;
5351;SDS011;2698;51.454;6.736;2022-08-23T01:46:42;19.03;;;6.87;;
5351;SDS011;2698;51.454;6.736;2022-08-23T01:49:10;34.80;;;6.17;;
5351;SDS011;2698;51.454;6.736;2022-08-23T01:51:37;14.10;;;6.10;;
5351;SDS011;2698;51.454;6.736;2022-08-23T01:54:04;17.37;;;6.40;;
5351;SDS011;2698;51.454;6.736;2022-08-23T01:56:31;15.73;;;6.03;;
5351;SDS011;2698;51.454;6.736;2022-08-23T01:59:01;21.13;;;6.43;;
5351;SDS011;2698;51.454;6.736;2022-08-23T02:01:28;20.07;;;6.13;;
5351;SDS011;2698;51.454;6.736;2022-08-23T02:03:55;11.93;;;6.10;;
5351;SDS011;2698;51.454;6.736;2022-08-23T02:06:22;16.67;;;5.33;;
5351;SDS011;2698;51.454;6.736;2022-08-23T02:08:49;23.67;;;6.40;;
5351;SDS011;2698;51.454;6.736;2022-08-23T02:11:29;22.73;;;6.90;;
5351;SDS011;2698;51.454;6.736;2022-08-23T02:14:00;21.07;;;7.00;;
5351;SDS011;2698;51.454;6.736;2022-08-23T02:16:32;11.87;;;6.73;;
5351;SDS011;2698;51.454;6.736;2022-08-23T02:19:01;18.13;;;7.10;;
5351;SDS011;2698;51.454;6.736;2022-08-23T02:21:30;9.90;;;6.37;;
5351;SDS011;2698;51.454;6.736;2022-08-23T02:23:57;23.53;;;7.50;;
5351;SDS011;2698;51.454;6.736;2022-08-23T02:26:24;23.63;;;6.47;;
5351;SDS011;2698;51.454;6.736;2022-08-23T02:28:51;17.03;;;6.30;;
5351;SDS011;2698;51.454;6.736;2022-08-23T02:31:19;17.03;;;7.53;;
5351;SDS011;2698;51.454;6.736;2022-08-23T02:33:46;14.40;;;6.30;;
5351;SDS011;2698;51.454;6.736;2022-08-23T02:36:13;13.00;;;6.83;;
5351;SDS011;2698;51.454;6.736;2022-08-23T02:38:41;22.43;;;6.30;;
5351;SDS011;2698;51.454;6.736;2022-08-23T02:41:08;18.20;;;5.80;;
5351;SDS011;2698;51.454;6.736;2022-08-23T02:43:35;18.60;;;7.00;;
5351;SDS011;2698;51.454;6.736;2022-08-23T02:46:02;32.20;;;7.03;;
5351;SDS011;2698;51.454;6.736;2022-08-23T02:48:31;26.87;;;9.10;;
5351;SDS011;2698;51.454;6.736;2022-08-23T02:50:58;20.07;;;7.53;;
5351;SDS011;2698;51.454;6.736;2022-08-23T02:53:25;29.80;;;7.67;;
5351;SDS011;2698;51.454;6.736;2022-08-23T02:55:53;14.60;;;6.57;;
5351;SDS011;2698;51.454;6.736;2022-08-23T02:58:20;20.00;;;6.40;;
5351;SDS011;2698;51.454;6.736;2022-08-23T03:00:47;19.83;;;7.50;;
5351;SDS011;2698;51.454;6.736;2022-08-23T03:03:14;14.60;;;6.90;;
5351;SDS011;2698;51.454;6.736;2022-08-23T03:05:43;17.33;;;7.10;;
5351;SDS011;2698;51.454;6.736;2022-08-23T03:08:10;33.27;;;7.33;;
5351;SDS011;2698;51.454;6.736;2022-08-23T03:10:40;13.83;;;6.33;;
5351;SDS011;2698;51.454;6.736;2022-08-23T03:13:07;17.60;;;7.27;;
5351;SDS011;2698;51.454;6.736;2022-08-23T03:15:34;19.57;;;7.20;;
5351;SDS011;2698;51.454;6.736;2022-08-23T03:18:01;16.13;;;6.60;;
5351;SDS011;2698;51.454;6.736;2022-08-23T03:20:28;16.93;;;6.90;;
5351;SDS011;2698;51.454;6.736;2022-08-23T03:22:56;19.90;;;8.03;;
5351;SDS011;2698;51.454;6.736;2022-08-23T03:25:23;38.67;;;7.53;;
5351;SDS011;2698;51.454;6.736;2022-08-23T03:27:50;25.33;;;7.73;;
5351;SDS011;2698;51.454;6.736;2022-08-23T03:30:17;25.10;;;7.20;;
5351;SDS011;2698;51.454;6.736;2022-08-23T03:32:43;18.30;;;8.87;;
5351;SDS011;2698;51.454;6.736;2022-08-23T03:35:11;30.90;;;8.43;;
5351;SDS011;2698;51.454;6.736;2022-08-23T03:37:38;24.37;;;7.97;;
5351;SDS011;2698;51.454;6.736;2022-08-23T03:40:07;21.33;;;8.47;;
5351;SDS011;2698;51.454;6.736;2022-08-23T03:42:35;33.50;;;8.73;;
5351;SDS011;2698;51.454;6.736;2022-08-23T03:45:02;20.93;;;7.63;;
5351;SDS011;2698;51.454;6.736;2022-08-23T03:47:29;14.27;;;7.40;;
5351;SDS011;2698;51.454;6.736;2022-08-23T03:49:56;16.37;;;7.20;;
5351;SDS011;2698;51.454;6.736;2022-08-23T03:52:23;17.30;;;6.80;;
5351;SDS011;2698;51.454;6.736;2022-08-23T03:54:50;11.87;;;6.47;;
5351;SDS011;2698;51.454;6.736;2022-08-23T03:57:18;9.33;;;6.63;;
5351;SDS011;2698;51.454;6.736;2022-08-23T03:59:45;16.50;;;6.10;;
5351;SDS011;2698;51.454;6.736;2022-08-23T04:02:13;10.63;;;6.57;;
5351;SDS011;2698;51.454;6.736;2022-08-23T04:04:39;13.87;;;6.40;;
5351;SDS011;2698;51.454;6.736;2022-08-23T04:07:07;11.43;;;6.50;;
5351;SDS011;2698;51.454;6.736;2022-08-23T04:09:34;17.83;;;6.80;;
5351;SDS011;2698;51.454;6.736;2022-08-23T04:12:01;16.63;;;7.10;;
5351;SDS011;2698;51.454;6.736;2022-08-23T04:14:29;12.63;;;5.13;;
5351;SDS011;2698;51.454;6.736;2022-08-23T04:16:56;10.23;;;6.80;;
5351;SDS011;2698;51.454;6.736;2022-08-23T04:19:23;11.43;;;5.30;;
5351;SDS011;2698;51.454;6.736;2022-08-23T04:21:50;13.67;;;5.90;;
5351;SDS011;2698;51.454;6.736;2022-08-23T04:24:18;10.00;;;5.40;;
5351;SDS011;2698;51.454;6.736;2022-08-23T04:26:45;9.80;;;5.57;;
5351;SDS011;2698;51.454;6.736;2022-08-23T04:29:12;14.07;;;6.20;;
5351;SDS011;2698;51.454;6.736;2022-08-23T04:31:42;23.13;;;6.23;;
5351;SDS011;2698;51.454;6.736;2022-08-23T04:34:10;18.30;;;6.87;;
5351;SDS011;2698;51.454;6.736;2022-08-23T04:36:38;10.77;;;6.00;;
5351;SDS011;2698;51.454;6.736;2022-08-23T04:39:06;12.50;;;5.17;;
5351;SDS011;2698;51.454;6.736;2022-08-23T04:41:34;20.57;;;6.30;;
5351;SDS011;2698;51.454;6.736;2022-08-23T04:44:19;15.47;;;6.40;;
5351;SDS011;2698;51.454;6.736;2022-08-23T04:46:47;16.53;;;7.23;;
5351;SDS011;2698;51.454;6.736;2022-08-23T04:49:14;20.00;;;6.53;;
5351;SDS011;2698;51.454;6.736;2022-08-23T04:51:41;16.80;;;7.00;;
5351;SDS011;2698;51.454;6.736;2022-08-23T04:54:08;23.73;;;7.10;;
5351;SDS011;2698;51.454;6.736;2022-08-23T04:56:35;16.13;;;5.90;;
5351;SDS011;2698;51.454;6.736;2022-08-23T04:59:03;13.67;;;6.83;;
5351;SDS011;2698;51.454;6.736;2022-08-23T05:01:30;19.30;;;6.33;;
5351;SDS011;2698;51.454;6.736;2022-08-23T05:03:58;37.77;;;7.73;;
5351;SDS011;2698;51.454;6.736;2022-08-23T05:06:25;21.77;;;7.37;;
5351;SDS011;2698;51.454;6.736;2022-08-23T05:08:53;21.30;;;7.10;;
5351;SDS011;2698;51.454;6.736;2022-08-23T05:11:20;21.57;;;7.23;;
5351;SDS011;2698;51.454;6.736;2022-08-23T05:13:47;14.93;;;6.50;;
5351;SDS011;2698;51.454;6.736;2022-08-23T05:16:14;18.83;;;7.00;;
5351;SDS011;2698;51.454;6.736;2022-08-23T05:18:41;14.80;;;7.40;;
5351;SDS011;2698;51.454;6.736;2022-08-23T05:21:13;21.23;;;7.90;;
5351;SDS011;2698;51.454;6.736;2022-08-23T05:23:41;21.50;;;8.00;;
5351;SDS011;2698;51.454;6.736;2022-08-23T05:26:07;12.60;;;7.30;;
5351;SDS011;2698;51.454;6.736;2022-08-23T05:28:35;17.67;;;7.47;;
5351;SDS011;2698;51.454;6.736;2022-08-23T05:31:06;23.60;;;8.50;;
5351;SDS011;2698;51.454;6.736;2022-08-23T05:33:34;22.47;;;7.87;;
5351;SDS011;2698;51.454;6.736;2022-08-23T05:36:03;21.93;;;8.10;;
5351;SDS011;2698;51.454;6.736;2022-08-23T05:38:32;20.60;;;7.40;;
5351;SDS011;2698;51.454;6.736;2022-08-23T05:40:59;25.90;;;8.17;;
5351;SDS011;2698;51.454;6.736;2022-08-23T05:43:27;20.30;;;8.47;;
5351;SDS011;2698;51.454;6.736;2022-08-23T05:46:00;23.23;;;8.50;;
5351;SDS011;2698;51.454;6.736;2022-08-23T05:48:29;36.53;;;8.67;;
5351;SDS011;2698;51.454;6.736;2022-08-23T05:50:56;31.47;;;9.50;;
5351;SDS011;2698;51.454;6.736;2022-08-23T05:53:33;37.70;;;9.07;;
5351;SDS011;2698;51.454;6.736;2022-08-23T05:56:06;36.60;;;9.00;;
5351;SDS011;2698;51.454;6.736;2022-08-23T05:58:35;17.13;;;7.77;;
5351;SDS011;2698;51.454;6.736;2022-08-23T06:01:02;18.93;;;7.73;;
5351;SDS011;2698;51.454;6.736;2022-08-23T06:03:28;15.03;;;7.10;;
5351;SDS011;2698;51.454;6.736;2022-08-23T06:05:56;18.67;;;8.57;;
5351;SDS011;2698;51.454;6.736;2022-08-23T06:08:23;15.67;;;8.10;;
5351;SDS011;2698;51.454;6.736;2022-08-23T06:10:58;20.57;;;8.63;;
5351;SDS011;2698;51.454;6.736;2022-08-23T06:13:26;38.30;;;9.30;;
5351;SDS011;2698;51.454;6.736;2022-08-23T06:15:54;30.97;;;8.90;;
5351;SDS011;2698;51.454;6.736;2022-08-23T06:18:21;26.17;;;8.47;;
5351;SDS011;2698;51.454;6.736;2022-08-23T06:20:48;19.67;;;8.20;;
5351;SDS011;2698;51.454;6.736;2022-08-23T06:23:25;29.97;;;8.20;;
5351;SDS011;2698;51.454;6.736;2022-08-23T06:25:51;25.43;;;8.63;;
5351;SDS011;2698;51.454;6.736;2022-08-23T06:28:20;13.37;;;7.87;;
5351;SDS011;2698;51.454;6.736;2022-08-23T06:30:47;20.77;;;8.47;;
5351;SDS011;2698;51.454;6.736;2022-08-23T06:33:13;23.73;;;9.37;;
5351;SDS011;2698;51.454;6.736;2022-08-23T06:35:40;16.70;;;9.40;;
5351;SDS011;2698;51.454;6.736;2022-08-23T06:38:07;18.53;;;9.20;;
5351;SDS011;2698;51.454;6.736;2022-08-23T06:40:34;16.40;;;9.77;;
5351;SDS011;2698;51.454;6.736;2022-08-23T06:43:01;13.30;;;9.37;;
5351;SDS011;2698;51.454;6.736;2022-08-23T06:45:29;15.17;;;10.03;;
5351;SDS011;2698;51.454;6.736;2022-08-23T06:47:57;31.43;;;13.30;;
5351;SDS011;2698;51.454;6.736;2022-08-23T06:50:24;43.03;;;14.60;;
5351;SDS011;2698;51.454;6.736;2022-08-23T06:52:51;27.63;;;13.07;;
5351;SDS011;2698;51.454;6.736;2022-08-23T06:55:18;29.47;;;14.50;;
5351;SDS011;2698;51.454;6.736;2022-08-23T06:57:45;30.63;;;11.63;;
5351;SDS011;2698;51.454;6.736;2022-08-23T07:00:12;27.80;;;11.40;;
5351;SDS011;2698;51.454;6.736;2022-08-23T07:02:41;26.70;;;11.00;;
5351;SDS011;2698;51.454;6.736;2022-08-23T07:05:08;33.67;;;10.53;;
5351;SDS011;2698;51.454;6.736;2022-08-23T07:07:35;27.97;;;9.27;;
5351;SDS011;2698;51.454;6.736;2022-08-23T07:10:02;20.10;;;9.50;;
5351;SDS011;2698;51.454;6.736;2022-08-23T07:12:30;22.70;;;9.57;;
5351;SDS011;2698;51.454;6.736;2022-08-23T07:14:57;16.50;;;9.53;;
5351;SDS011;2698;51.454;6.736;2022-08-23T07:17:24;29.30;;;9.53;;
5351;SDS011;2698;51.454;6.736;2022-08-23T07:19:52;18.43;;;8.77;;
5351;SDS011;2698;51.454;6.736;2022-08-23T07:22:19;28.48;;;8.75;;
5351;SDS011;2698;51.454;6.736;2022-08-23T07:24:48;29.83;;;8.95;;
5351;SDS011;2698;51.454;6.736;2022-08-23T07:27:15;28.92;;;8.45;;
5351;SDS011;2698;51.454;6.736;2022-08-23T07:29:42;26.52;;;9.30;;
5351;SDS011;2698;51.454;6.736;2022-08-23T07:32:09;19.83;;;8.82;;
5351;SDS011;2698;51.454;6.736;2022-08-23T07:34:37;24.10;;;9.00;;
5351;SDS011;2698;51.454;6.736;2022-08-23T07:37:05;28.65;;;10.55;;
5351;SDS011;2698;51.454;6.736;2022-08-23T07:39:32;37.47;;;12.95;;
5351;SDS011;2698;51.454;6.736;2022-08-23T07:42:00;34.92;;;13.82;;
5351;SDS011;2698;51.454;6.736;2022-08-23T07:44:28;26.52;;;13.85;;
5351;SDS011;2698;51.454;6.736;2022-08-23T07:46:55;25.20;;;11.50;;
5351;SDS011;2698;51.454;6.736;2022-08-23T07:49:22;16.53;;;9.50;;
5351;SDS011;2698;51.454;6.736;2022-08-23T07:51:50;28.80;;;10.90;;
5351;SDS011;2698;51.454;6.736;2022-08-23T07:54:18;22.40;;;10.90;;
5351;SDS011;2698;51.454;6.736;2022-08-23T07:56:46;26.47;;;10.50;;
5351;SDS011;2698;51.454;6.736;2022-08-23T07:59:13;21.67;;;9.00;;
5351;SDS011;2698;51.454;6.736;2022-08-23T08:01:41;16.93;;;8.40;;
5351;SDS011;2698;51.454;6.736;2022-08-23T08:04:09;25.53;;;9.83;;
5351;SDS011;2698;51.454;6.736;2022-08-23T08:06:37;23.93;;;9.10;;
5351;SDS011;2698;51.454;6.736;2022-08-23T08:09:06;24.47;;;8.10;;
5351;SDS011;2698;51.454;6.736;2022-08-23T08:11:35;23.80;;;9.10;;
5351;SDS011;2698;51.454;6.736;2022-08-23T08:14:03;22.57;;;8.10;;
5351;SDS011;2698;51.454;6.736;2022-08-23T08:16:33;33.53;;;7.60;;
5351;SDS011;2698;51.454;6.736;2022-08-23T08:19:02;14.33;;;6.10;;
5351;SDS011;2698;51.454;6.736;2022-08-23T08:21:31;20.03;;;6.17;;
5351;SDS011;2698;51.454;6.736;2022-08-23T08:23:58;11.43;;;6.60;;
5351;SDS011;2698;51.454;6.736;2022-08-23T08:26:25;17.07;;;6.53;;
5351;SDS011;2698;51.454;6.736;2022-08-23T08:28:54;15.00;;;5.70;;
5351;SDS011;2698;51.454;6.736;2022-08-23T08:31:21;13.50;;;7.73;;
5351;SDS011;2698;51.454;6.736;2022-08-23T08:33:49;20.60;;;7.03;;
5351;SDS011;2698;51.454;6.736;2022-08-23T08:36:26;21.13;;;8.60;;
5351;SDS011;2698;51.454;6.736;2022-08-23T08:38:59;14.77;;;6.70;;
5351;SDS011;2698;51.454;6.736;2022-08-23T08:41:29;24.57;;;7.90;;
5351;SDS011;2698;51.454;6.736;2022-08-23T08:44:13;17.30;;;8.00;;
5351;SDS011;2698;51.454;6.736;2022-08-23T08:46:49;26.17;;;7.60;;
5351;SDS011;2698;51.454;6.736;2022-08-23T08:49:21;23.13;;;8.83;;
5351;SDS011;2698;51.454;6.736;2022-08-23T08:51:58;31.60;;;8.67;;
5351;SDS011;2698;51.454;6.736;2022-08-23T08:54:30;32.67;;;11.77;;
5351;SDS011;2698;51.454;6.736;2022-08-23T08:56:58;34.50;;;8.43;;
5351;SDS011;2698;51.454;6.736;2022-08-23T08:59:28;34.47;;;10.00;;
5351;SDS011;2698;51.454;6.736;2022-08-23T09:02:06;27.03;;;9.37;;
5351;SDS011;2698;51.454;6.736;2022-08-23T09:04:40;21.93;;;8.20;;
5351;SDS011;2698;51.454;6.736;2022-08-23T09:07:09;17.67;;;7.70;;
5351;SDS011;2698;51.454;6.736;2022-08-23T09:09:48;26.23;;;9.87;;
5351;SDS011;2698;51.454;6.736;2022-08-23T09:12:32;20.60;;;8.33;;
5351;SDS011;2698;51.454;6.736;2022-08-23T09:15:14;22.10;;;7.37;;
5351;SDS011;2698;51.454;6.736;2022-08-23T09:17:48;24.77;;;8.13;;
5351;SDS011;2698;51.454;6.736;2022-08-23T09:20:18;21.53;;;8.97;;
5351;SDS011;2698;51.454;6.736;2022-08-23T09:22:47;28.23;;;8.40;;
5351;SDS011;2698;51.454;6.736;2022-08-23T09:25:18;20.93;;;8.73;;
5351;SDS011;2698;51.454;6.736;2022-08-23T09:27:46;19.37;;;7.50;;
5351;SDS011;2698;51.454;6.736;2022-08-23T09:30:15;20.43;;;7.80;;
5351;SDS011;2698;51.454;6.736;2022-08-23T09:32:44;22.53;;;8.83;;
5351;SDS011;2698;51.454;6.736;2022-08-23T09:35:15;15.67;;;7.63;;
5351;SDS011;2698;51.454;6.736;2022-08-23T09:37:45;20.83;;;7.63;;
5351;SDS011;2698;51.454;6.736;2022-08-23T09:40:16;14.30;;;7.20;;
5351;SDS011;2698;51.454;6.736;2022-08-23T09:42:45;21.40;;;7.20;;
5351;SDS011;2698;51.454;6.736;2022-08-23T09:45:29;23.77;;;8.47;;
5351;SDS011;2698;51.454;6.736;2022-08-23T09:47:58;24.63;;;9.90;;
5351;SDS011;2698;51.454;6.736;2022-08-23T09:50:27;20.53;;;8.83;;
5351;SDS011;2698;51.454;6.736;2022-08-23T09:52:57;15.93;;;8.33;;
5351;SDS011;2698;51.454;6.736;2022-08-23T09:55:27;19.53;;;9.00;;
5351;SDS011;2698;51.454;6.736;2022-08-23T09:57:57;15.80;;;9.17;;
5351;SDS011;2698;51.454;6.736;2022-08-23T10:00:26;25.37;;;7.27;;
5351;SDS011;2698;51.454;6.736;2022-08-23T10:05:48;14.97;;;5.90;;
5351;SDS011;2698;51.454;6.736;2022-08-23T10:08:20;12.70;;;5.40;;
5351;SDS011;2698;51.454;6.736;2022-08-23T10:10:49;16.20;;;6.83;;
5351;SDS011;2698;51.454;6.736;2022-08-23T10:13:18;26.60;;;7.27;;
5351;SDS011;2698;51.454;6.736;2022-08-23T10:15:50;18.07;;;6.30;;
5351;SDS011;2698;51.454;6.736;2022-08-23T10:18:27;13.17;;;5.47;;
5351;SDS011;2698;51.454;6.736;2022-08-23T10:21:07;12.17;;;5.07;;
5351;SDS011;2698;51.454;6.736;2022-08-23T10:23:43;13.67;;;4.93;;
5351;SDS011;2698;51.454;6.736;2022-08-23T10:26:18;12.40;;;5.00;;
5351;SDS011;2698;51.454;6.736;2022-08-23T10:28:53;13.40;;;5.47;;
5351;SDS011;2698;51.454;6.736;2022-08-23T10:31:46;14.37;;;6.00;;
5351;SDS011;2698;51.454;6.736;2022-08-23T10:34:23;11.67;;;4.67;;
5351;SDS011;2698;51.454;6.736;2022-08-23T10:37:04;10.57;;;4.20;;
5351;SDS011;2698;51.454;6.736;2022-08-23T10:39:48;17.53;;;4.70;;
5351;SDS011;2698;51.454;6.736;2022-08-23T10:42:35;10.97;;;4.00;;
5351;SDS011;2698;51.454;6.736;2022-08-23T10:45:09;8.88;;;4.68;;
5351;SDS011;2698;51.454;6.736;2022-08-23T10:47:50;8.93;;;4.13;;
5351;SDS011;2698;51.454;6.736;2022-08-23T10:50:38;12.30;;;4.10;;
5351;SDS011;2698;51.454;6.736;2022-08-23T10:53:10;7.70;;;3.93;;
5351;SDS011;2698;51.454;6.736;2022-08-23T10:55:40;7.97;;;3.53;;
5351;SDS011;2698;51.454;6.736;2022-08-23T10:58:27;20.00;;;4.10;;
5351;SDS011;2698;51.454;6.736;2022-08-23T11:00:58;8.60;;;3.80;;
5351;SDS011;2698;51.454;6.736;2022-08-23T11:03:28;11.23;;;3.90;;
5351;SDS011;2698;51.454;6.736;2022-08-23T11:09:05;8.07;;;4.05;;
5351;SDS011;2698;51.454;6.736;2022-08-23T11:11:41;5.00;;;3.60;;
5351;SDS011;2698;51.454;6.736;2022-08-23T11:14:11;12.93;;;4.43;;
5351;SDS011;2698;51.454;6.736;2022-08-23T11:16:53;7.10;;;3.97;;
5351;SDS011;2698;51.454;6.736;2022-08-23T11:22:15;16.52;;;5.10;;
5351;SDS011;2698;51.454;6.736;2022-08-23T11:27:52;6.68;;;3.75;;
5351;SDS011;2698;51.454;6.736;2022-08-23T11:30:58;14.00;;;5.00;;
5351;SDS011;2698;51.454;6.736;2022-08-23T11:33:50;7.33;;;4.03;;
5351;SDS011;2698;51.454;6.736;2022-08-23T11:36:25;12.30;;;3.97;;
5351;SDS011;2698;51.454;6.736;2022-08-23T11:39:00;13.33;;;4.20;;
5351;SDS011;2698;51.454;6.736;2022-08-23T11:41:35;13.77;;;4.40;;
5351;SDS011;2698;51.454;6.736;2022-08-23T11:44:34;9.43;;;3.40;;
5351;SDS011;2698;51.454;6.736;2022-08-23T11:47:05;17.63;;;6.35;;
5351;SDS011;2698;51.454;6.736;2022-08-23T11:52:49;12.80;;;5.55;;
5351;SDS011;2698;51.454;6.736;2022-08-23T11:55:36;14.40;;;5.30;;
5351;SDS011;2698;51.454;6.736;2022-08-23T11:58:22;15.02;;;5.78;;
5351;SDS011;2698;51.454;6.736;2022-08-23T12:01:10;10.15;;;4.88;;
5351;SDS011;2698;51.454;6.736;2022-08-23T12:03:41;12.05;;;4.07;;
5351;SDS011;2698;51.454;6.736;2022-08-23T12:09:12;13.18;;;4.75;;
5351;SDS011;2698;51.454;6.736;2022-08-23T12:12:11;16.00;;;4.90;;
5351;SDS011;2698;51.454;6.736;2022-08-23T12:14:58;14.32;;;4.13;;
5351;SDS011;2698;51.454;6.736;2022-08-23T12:20:31;4.03;;;3.45;;
5351;SDS011;2698;51.454;6.736;2022-08-23T12:23:02;10.23;;;3.33;;
5351;SDS011;2698;51.454;6.736;2022-08-23T12:25:33;10.20;;;4.30;;
5351;SDS011;2698;51.454;6.736;2022-08-23T12:28:05;8.45;;;3.53;;
5351;SDS011;2698;51.454;6.736;2022-08-23T12:30:39;6.43;;;3.35;;
5351;SDS011;2698;51.454;6.736;2022-08-23T12:33:18;6.47;;;4.10;;
5351;SDS011;2698;51.454;6.736;2022-08-23T12:35:54;7.15;;;2.83;;
5351;SDS011;2698;51.454;6.736;2022-08-23T12:38:31;9.68;;;2.95;;
5351;SDS011;2698;51.454;6.736;2022-08-23T12:41:11;7.78;;;2.90;;
5351;SDS011;2698;51.454;6.736;2022-08-23T12:43:53;5.63;;;3.10;;
5351;SDS011;2698;51.454;6.736;2022-08-23T12:46:29;5.32;;;3.08;;
5351;SDS011;2698;51.454;6.736;2022-08-23T12:48:59;5.63;;;3.13;;
5351;SDS011;2698;51.454;6.736;2022-08-23T12:51:27;5.20;;;3.53;;
5351;SDS011;2698;51.454;6.736;2022-08-23T12:53:54;8.15;;;3.35;;
5351;SDS011;2698;51.454;6.736;2022-08-23T12:56:25;5.93;;;3.20;;
5351;SDS011;2698;51.454;6.736;2022-08-23T12:58:57;12.07;;;3.25;;
5351;SDS011;2698;51.454;6.736;2022-08-23T13:01:27;7.57;;;3.58;;
5351;SDS011;2698;51.454;6.736;2022-08-23T13:03:58;9.57;;;3.17;;
5351;SDS011;2698;51.454;6.736;2022-08-23T13:06:29;7.20;;;3.75;;
5351;SDS011;2698;51.454;6.736;2022-08-23T13:09:00;8.00;;;3.35;;
5351;SDS011;2698;51.454;6.736;2022-08-23T13:11:34;7.03;;;2.90;;
5351;SDS011;2698;51.454;6.736;2022-08-23T13:16:49;6.47;;;2.58;;
5351;SDS011;2698;51.454;6.736;2022-08-23T13:19:17;9.20;;;3.35;;
5351;SDS011;2698;51.454;6.736;2022-08-23T13:24:38;5.63;;;2.92;;
5351;SDS011;2698;51.454;6.736;2022-08-23T13:27:10;7.75;;;3.38;;
5351;SDS011;2698;51.454;6.736;2022-08-23T13:29:49;5.00;;;2.65;;
5351;SDS011;2698;51.454;6.736;2022-08-23T13:32:31;4.60;;;3.20;;
5351;SDS011;2698;51.454;6.736;2022-08-23T13:37:57;9.15;;;3.60;;
5351;SDS011;2698;51.454;6.736;2022-08-23T13:40:27;6.40;;;2.92;;
5351;SDS011;2698;51.454;6.736;2022-08-23T13:42:57;5.90;;;2.58;;
5351;SDS011;2698;51.454;6.736;2022-08-23T13:45:28;6.05;;;3.00;;
5351;SDS011;2698;51.454;6.736;2022-08-23T13:47:58;5.47;;;2.67;;
5351;SDS011;2698;51.454;6.736;2022-08-23T13:50:29;13.00;;;3.37;;
5351;SDS011;2698;51.454;6.736;2022-08-23T13:52:57;8.45;;;3.03;;
5351;SDS011;2698;51.454;6.736;2022-08-23T13:55:24;7.22;;;3.33;;
5351;SDS011;2698;51.454;6.736;2022-08-23T13:57:52;7.45;;;2.85;;
5351;SDS011;2698;51.454;6.736;2022-08-23T14:00:20;6.13;;;3.10;;
5351;SDS011;2698;51.454;6.736;2022-08-23T14:02:50;6.90;;;2.63;;
5351;SDS011;2698;51.454;6.736;2022-08-23T14:05:18;8.15;;;2.80;;
5351;SDS011;2698;51.454;6.736;2022-08-23T14:07:47;3.05;;;2.63;;
5351;SDS011;2698;51.454;6.736;2022-08-23T14:10:17;5.18;;;3.28;;
5351;SDS011;2698;51.454;6.736;2022-08-23T14:12:45;6.20;;;3.13;;
5351;SDS011;2698;51.454;6.736;2022-08-23T14:15:14;3.83;;;3.10;;
5351;SDS011;2698;51.454;6.736;2022-08-23T14:17:42;8.05;;;3.08;;
5351;SDS011;2698;51.454;6.736;2022-08-23T14:20:14;8.47;;;2.70;;
5351;SDS011;2698;51.454;6.736;2022-08-23T14:22:42;9.68;;;3.20;;
5351;SDS011;2698;51.454;6.736;2022-08-23T14:25:10;7.33;;;2.73;;
5351;SDS011;2698;51.454;6.736;2022-08-23T14:27:37;10.25;;;3.22;;
5351;SDS011;2698;51.454;6.736;2022-08-23T14:30:05;4.90;;;2.97;;
5351;SDS011;2698;51.454;6.736;2022-08-23T14:32:35;6.72;;;3.00;;
5351;SDS011;2698;51.454;6.736;2022-08-23T14:35:03;4.15;;;2.90;;
5351;SDS011;2698;51.454;6.736;2022-08-23T14:37:32;11.38;;;3.17;;
5351;SDS011;2698;51.454;6.736;2022-08-23T14:39:59;4.95;;;2.90;;
5351;SDS011;2698;51.454;6.736;2022-08-23T14:42:25;3.85;;;2.28;;
5351;SDS011;2698;51.454;6.736;2022-08-23T14:44:52;10.52;;;3.28;;
5351;SDS011;2698;51.454;6.736;2022-08-23T14:47:19;8.18;;;3.45;;
5351;SDS011;2698;51.454;6.736;2022-08-23T14:49:46;5.40;;;3.35;;
5351;SDS011;2698;51.454;6.736;2022-08-23T14:52:13;7.22;;;3.15;;
5351;SDS011;2698;51.454;6.736;2022-08-23T14:54:42;13.33;;;2.70;;
5351;SDS011;2698;51.454;6.736;2022-08-23T14:57:09;2.95;;;2.20;;
5351;SDS011;2698;51.454;6.736;2022-08-23T14:59:36;3.37;;;2.67;;
5351;SDS011;2698;51.454;6.736;2022-08-23T15:02:03;2.80;;;2.33;;
5351;SDS011;2698;51.454;6.736;2022-08-23T15:04:33;7.18;;;2.72;;
5351;SDS011;2698;51.454;6.736;2022-08-23T15:07:00;3.22;;;2.53;;
5351;SDS011;2698;51.454;6.736;2022-08-23T15:09:27;6.00;;;2.50;;
5351;SDS011;2698;51.454;6.736;2022-08-23T15:11:56;5.03;;;2.60;;
5351;SDS011;2698;51.454;6.736;2022-08-23T15:14:22;7.00;;;2.70;;
5351;SDS011;2698;51.454;6.736;2022-08-23T15:16:49;5.37;;;2.67;;
5351;SDS011;2698;51.454;6.736;2022-08-23T15:19:16;11.83;;;2.90;;
5351;SDS011;2698;51.454;6.736;2022-08-23T15:21:43;5.27;;;2.77;;
5351;SDS011;2698;51.454;6.736;2022-08-23T15:24:10;5.43;;;2.30;;
5351;SDS011;2698;51.454;6.736;2022-08-23T15:26:37;1.97;;;1.87;;
5351;SDS011;2698;51.454;6.736;2022-08-23T15:29:05;3.80;;;2.40;;
5351;SDS011;2698;51.454;6.736;2022-08-23T15:31:32;5.13;;;2.50;;
5351;SDS011;2698;51.454;6.736;2022-08-23T15:33:59;6.30;;;2.10;;
5351;SDS011;2698;51.454;6.736;2022-08-23T15:36:26;6.33;;;3.07;;
5351;SDS011;2698;51.454;6.736;2022-08-23T15:38:55;5.13;;;2.40;;
5351;SDS011;2698;51.454;6.736;2022-08-23T15:41:22;7.00;;;2.27;;
5351;SDS011;2698;51.454;6.736;2022-08-23T15:43:48;8.23;;;2.97;;
5351;SDS011;2698;51.454;6.736;2022-08-23T15:46:18;2.20;;;1.93;;
5351;SDS011;2698;51.454;6.736;2022-08-23T15:48:48;7.63;;;2.20;;
5351;SDS011;2698;51.454;6.736;2022-08-23T15:51:19;4.43;;;2.43;;
5351;SDS011;2698;51.454;6.736;2022-08-23T15:53:46;5.17;;;2.63;;